<?xml version="1.0" encoding="UTF-8" standalone="no" ?>
<gpx xmlns="http://www.topografix.com/GPX/1/1" xmlns:xsi="http://www.w3.org/2001/XMLSchema-instance" xsi:schemaLocation="http://www.topografix.com/GPX/1/1 http://www.topografix.com/GPX/1/1/gpx.xsd" version="1.1" creator="VisuGPX - https://www.visugpx.com">
  <metadata>
    <name>Projet Eoliennes avec horodatage</name>
  </metadata>
  <trk>
    <name><![CDATA[Projet Eoliennes]]></name>
    <trkseg>
      <trkpt lat="47.51726" lon="6.77582">
        <ele>392.2</ele>
        <time>2022-01-01T06:00:13Z</time>
      </trkpt>
      <trkpt lat="47.51709" lon="6.77771">
        <ele>381.6</ele>
        <time>2022-01-01T06:00:49Z</time>
      </trkpt>
      <trkpt lat="47.51633" lon="6.77762">
        <ele>376</ele>
        <time>2022-01-01T06:01:10Z</time>
      </trkpt>
      <trkpt lat="47.51488" lon="6.77728">
        <ele>357.4</ele>
        <time>2022-01-01T06:01:55Z</time>
      </trkpt>
      <trkpt lat="47.51332" lon="6.77779">
        <ele>338.9</ele>
        <time>2022-01-01T06:02:43Z</time>
      </trkpt>
      <trkpt lat="47.5108" lon="6.77792">
        <ele>317.9</ele>
        <time>2022-01-01T06:03:53Z</time>
      </trkpt>
      <trkpt lat="47.50961" lon="6.77698">
        <ele>314.6</ele>
        <time>2022-01-01T06:04:25Z</time>
      </trkpt>
      <trkpt lat="47.50885" lon="6.77702">
        <ele>313.2</ele>
        <time>2022-01-01T06:04:43Z</time>
      </trkpt>
      <trkpt lat="47.50813" lon="6.77599">
        <ele>313.3</ele>
        <time>2022-01-01T06:05:05Z</time>
      </trkpt>
      <trkpt lat="47.507" lon="6.77522">
        <ele>314</ele>
        <time>2022-01-01T06:05:33Z</time>
      </trkpt>
      <trkpt lat="47.50607" lon="6.77539">
        <ele>314.5</ele>
        <time>2022-01-01T06:05:54Z</time>
      </trkpt>
      <trkpt lat="47.50564" lon="6.77548">
        <ele>313.7</ele>
        <time>2022-01-01T06:06:04Z</time>
      </trkpt>
      <trkpt lat="47.50424" lon="6.77423">
        <ele>313.7</ele>
        <time>2022-01-01T06:06:40Z</time>
      </trkpt>
      <trkpt lat="47.50134" lon="6.77204">
        <ele>313.4</ele>
        <time>2022-01-01T06:07:53Z</time>
      </trkpt>
      <trkpt lat="47.50068" lon="6.77208">
        <ele>314.5</ele>
        <time>2022-01-01T06:08:09Z</time>
      </trkpt>
      <trkpt lat="47.49853" lon="6.7732">
        <ele>311.9</ele>
        <time>2022-01-01T06:09:01Z</time>
      </trkpt>
      <trkpt lat="47.49755" lon="6.7732">
        <ele>312.8</ele>
        <time>2022-01-01T06:09:24Z</time>
      </trkpt>
      <trkpt lat="47.49644" lon="6.77346">
        <ele>312.4</ele>
        <time>2022-01-01T06:09:49Z</time>
      </trkpt>
      <trkpt lat="47.49357" lon="6.77354">
        <ele>312</ele>
        <time>2022-01-01T06:10:53Z</time>
      </trkpt>
      <trkpt lat="47.49085" lon="6.77333">
        <ele>312</ele>
        <time>2022-01-01T06:11:54Z</time>
      </trkpt>
      <trkpt lat="47.48925" lon="6.77307">
        <ele>311.9</ele>
        <time>2022-01-01T06:12:30Z</time>
      </trkpt>
      <trkpt lat="47.48789" lon="6.77243">
        <ele>311</ele>
        <time>2022-01-01T06:13:02Z</time>
      </trkpt>
      <trkpt lat="47.48641" lon="6.7711">
        <ele>311</ele>
        <time>2022-01-01T06:13:40Z</time>
      </trkpt>
      <trkpt lat="47.48572" lon="6.77037">
        <ele>312.7</ele>
        <time>2022-01-01T06:14:01Z</time>
      </trkpt>
      <trkpt lat="47.48369" lon="6.76938">
        <ele>310.9</ele>
        <time>2022-01-01T06:14:50Z</time>
      </trkpt>
      <trkpt lat="47.48244" lon="6.76814">
        <ele>311.8</ele>
        <time>2022-01-01T06:15:24Z</time>
      </trkpt>
      <trkpt lat="47.48139" lon="6.76724">
        <ele>310.9</ele>
        <time>2022-01-01T06:15:51Z</time>
      </trkpt>
      <trkpt lat="47.4809" lon="6.76612">
        <ele>308.7</ele>
        <time>2022-01-01T06:16:12Z</time>
      </trkpt>
      <trkpt lat="47.48116" lon="6.76539">
        <ele>312.7</ele>
        <time>2022-01-01T06:16:28Z</time>
      </trkpt>
      <trkpt lat="47.48099" lon="6.76505">
        <ele>311.2</ele>
        <time>2022-01-01T06:16:35Z</time>
      </trkpt>
      <trkpt lat="47.48018" lon="6.7659">
        <ele>314</ele>
        <time>2022-01-01T06:17:00Z</time>
      </trkpt>
      <trkpt lat="47.47919" lon="6.76638">
        <ele>311.9</ele>
        <time>2022-01-01T06:17:24Z</time>
      </trkpt>
      <trkpt lat="47.47823" lon="6.76818">
        <ele>312.2</ele>
        <time>2022-01-01T06:17:59Z</time>
      </trkpt>
      <trkpt lat="47.47774" lon="6.76801">
        <ele>313</ele>
        <time>2022-01-01T06:18:11Z</time>
      </trkpt>
      <trkpt lat="47.47574" lon="6.76685">
        <ele>312</ele>
        <time>2022-01-01T06:18:59Z</time>
      </trkpt>
      <trkpt lat="47.47472" lon="6.76548">
        <ele>309.3</ele>
        <time>2022-01-01T06:19:31Z</time>
      </trkpt>
      <trkpt lat="47.47437" lon="6.76509">
        <ele>313</ele>
        <time>2022-01-01T06:19:44Z</time>
      </trkpt>
      <trkpt lat="47.47353" lon="6.76518">
        <ele>314.1</ele>
        <time>2022-01-01T06:20:04Z</time>
      </trkpt>
      <trkpt lat="47.4713" lon="6.76543">
        <ele>320.9</ele>
        <time>2022-01-01T06:21:01Z</time>
      </trkpt>
      <trkpt lat="47.4697" lon="6.7653">
        <ele>327.3</ele>
        <time>2022-01-01T06:21:43Z</time>
      </trkpt>
      <trkpt lat="47.46854" lon="6.76457">
        <ele>330.7</ele>
        <time>2022-01-01T06:22:14Z</time>
      </trkpt>
      <trkpt lat="47.46759" lon="6.76436">
        <ele>334.1</ele>
        <time>2022-01-01T06:22:39Z</time>
      </trkpt>
      <trkpt lat="47.46634" lon="6.76505">
        <ele>338.3</ele>
        <time>2022-01-01T06:23:13Z</time>
      </trkpt>
      <trkpt lat="47.46535" lon="6.76543">
        <ele>343</ele>
        <time>2022-01-01T06:23:40Z</time>
      </trkpt>
      <trkpt lat="47.46419" lon="6.76526">
        <ele>349.6</ele>
        <time>2022-01-01T06:24:13Z</time>
      </trkpt>
      <trkpt lat="47.46332" lon="6.76535">
        <ele>346.3</ele>
        <time>2022-01-01T06:24:35Z</time>
      </trkpt>
      <trkpt lat="47.46146" lon="6.76659">
        <ele>356.3</ele>
        <time>2022-01-01T06:25:30Z</time>
      </trkpt>
      <trkpt lat="47.45926" lon="6.76724">
        <ele>365.9</ele>
        <time>2022-01-01T06:26:30Z</time>
      </trkpt>
      <trkpt lat="47.45761" lon="6.76732">
        <ele>375.4</ele>
        <time>2022-01-01T06:27:16Z</time>
      </trkpt>
      <trkpt lat="47.45508" lon="6.76758">
        <ele>381.6</ele>
        <time>2022-01-01T06:28:18Z</time>
      </trkpt>
      <trkpt lat="47.4538" lon="6.76801">
        <ele>387.1</ele>
        <time>2022-01-01T06:28:53Z</time>
      </trkpt>
      <trkpt lat="47.45276" lon="6.76779">
        <ele>387.1</ele>
        <time>2022-01-01T06:29:16Z</time>
      </trkpt>
      <trkpt lat="47.4523" lon="6.76754">
        <ele>387.6</ele>
        <time>2022-01-01T06:29:28Z</time>
      </trkpt>
      <trkpt lat="47.45108" lon="6.76998">
        <ele>375.8</ele>
        <time>2022-01-01T06:30:22Z</time>
      </trkpt>
      <trkpt lat="47.4507" lon="6.77127">
        <ele>373.1</ele>
        <time>2022-01-01T06:30:45Z</time>
      </trkpt>
      <trkpt lat="47.4505" lon="6.7726">
        <ele>370.4</ele>
        <time>2022-01-01T06:31:07Z</time>
      </trkpt>
      <trkpt lat="47.45012" lon="6.77187">
        <ele>374.7</ele>
        <time>2022-01-01T06:31:25Z</time>
      </trkpt>
      <trkpt lat="47.44861" lon="6.77067">
        <ele>396.2</ele>
        <time>2022-01-01T06:32:25Z</time>
      </trkpt>
      <trkpt lat="47.44757" lon="6.77007">
        <ele>406.1</ele>
        <time>2022-01-01T06:33:00Z</time>
      </trkpt>
      <trkpt lat="47.44661" lon="6.76878">
        <ele>416.4</ele>
        <time>2022-01-01T06:33:39Z</time>
      </trkpt>
      <trkpt lat="47.44597" lon="6.76831">
        <ele>418.6</ele>
        <time>2022-01-01T06:33:57Z</time>
      </trkpt>
      <trkpt lat="47.44533" lon="6.76899">
        <ele>420.2</ele>
        <time>2022-01-01T06:34:16Z</time>
      </trkpt>
      <trkpt lat="47.44455" lon="6.76981">
        <ele>420.7</ele>
        <time>2022-01-01T06:34:38Z</time>
      </trkpt>
      <trkpt lat="47.44362" lon="6.76942">
        <ele>429.1</ele>
        <time>2022-01-01T06:35:08Z</time>
      </trkpt>
      <trkpt lat="47.44286" lon="6.76878">
        <ele>437.5</ele>
        <time>2022-01-01T06:35:36Z</time>
      </trkpt>
      <trkpt lat="47.44228" lon="6.76874">
        <ele>441.2</ele>
        <time>2022-01-01T06:35:53Z</time>
      </trkpt>
      <trkpt lat="47.44109" lon="6.76775">
        <ele>449.1</ele>
        <time>2022-01-01T06:36:31Z</time>
      </trkpt>
      <trkpt lat="47.43964" lon="6.76621">
        <ele>455.3</ele>
        <time>2022-01-01T06:37:17Z</time>
      </trkpt>
      <trkpt lat="47.43834" lon="6.76492">
        <ele>459.7</ele>
        <time>2022-01-01T06:37:56Z</time>
      </trkpt>
      <trkpt lat="47.43683" lon="6.76449">
        <ele>462.5</ele>
        <time>2022-01-01T06:38:33Z</time>
      </trkpt>
      <trkpt lat="47.43636" lon="6.76359">
        <ele>467.3</ele>
        <time>2022-01-01T06:38:55Z</time>
      </trkpt>
      <trkpt lat="47.43596" lon="6.76239">
        <ele>468.9</ele>
        <time>2022-01-01T06:39:17Z</time>
      </trkpt>
      <trkpt lat="47.4354" lon="6.7617">
        <ele>473.6</ele>
        <time>2022-01-01T06:39:38Z</time>
      </trkpt>
      <trkpt lat="47.43427" lon="6.75968">
        <ele>482.4</ele>
        <time>2022-01-01T06:40:26Z</time>
      </trkpt>
      <trkpt lat="47.43381" lon="6.75878">
        <ele>487.4</ele>
        <time>2022-01-01T06:40:48Z</time>
      </trkpt>
      <trkpt lat="47.43201" lon="6.75724">
        <ele>503.4</ele>
        <time>2022-01-01T06:41:50Z</time>
      </trkpt>
      <trkpt lat="47.43006" lon="6.75612">
        <ele>514.4</ele>
        <time>2022-01-01T06:42:47Z</time>
      </trkpt>
      <trkpt lat="47.42876" lon="6.75522">
        <ele>521.5</ele>
        <time>2022-01-01T06:43:26Z</time>
      </trkpt>
      <trkpt lat="47.42727" lon="6.75518">
        <ele>521.3</ele>
        <time>2022-01-01T06:43:59Z</time>
      </trkpt>
      <trkpt lat="47.42649" lon="6.75522">
        <ele>515.9</ele>
        <time>2022-01-01T06:44:20Z</time>
      </trkpt>
      <trkpt lat="47.42577" lon="6.7547">
        <ele>513.7</ele>
        <time>2022-01-01T06:44:39Z</time>
      </trkpt>
      <trkpt lat="47.4242" lon="6.75462">
        <ele>519.8</ele>
        <time>2022-01-01T06:45:20Z</time>
      </trkpt>
      <trkpt lat="47.42321" lon="6.75483">
        <ele>528.8</ele>
        <time>2022-01-01T06:45:51Z</time>
      </trkpt>
      <trkpt lat="47.42272" lon="6.75513">
        <ele>533.8</ele>
        <time>2022-01-01T06:46:08Z</time>
      </trkpt>
      <trkpt lat="47.42208" lon="6.75505">
        <ele>541.2</ele>
        <time>2022-01-01T06:46:30Z</time>
      </trkpt>
      <trkpt lat="47.42089" lon="6.7547">
        <ele>548.6</ele>
        <time>2022-01-01T06:47:04Z</time>
      </trkpt>
      <trkpt lat="47.42034" lon="6.75367">
        <ele>548.8</ele>
        <time>2022-01-01T06:47:24Z</time>
      </trkpt>
      <trkpt lat="47.41961" lon="6.7523">
        <ele>547</ele>
        <time>2022-01-01T06:47:51Z</time>
      </trkpt>
      <trkpt lat="47.41859" lon="6.75144">
        <ele>546.7</ele>
        <time>2022-01-01T06:48:17Z</time>
      </trkpt>
      <trkpt lat="47.41769" lon="6.75058">
        <ele>547</ele>
        <time>2022-01-01T06:48:41Z</time>
      </trkpt>
      <trkpt lat="47.41732" lon="6.75054">
        <ele>546.3</ele>
        <time>2022-01-01T06:48:50Z</time>
      </trkpt>
      <trkpt lat="47.41671" lon="6.75101">
        <ele>541.3</ele>
        <time>2022-01-01T06:49:09Z</time>
      </trkpt>
      <trkpt lat="47.41572" lon="6.75157">
        <ele>538.6</ele>
        <time>2022-01-01T06:49:34Z</time>
      </trkpt>
      <trkpt lat="47.41444" lon="6.7517">
        <ele>543</ele>
        <time>2022-01-01T06:50:07Z</time>
      </trkpt>
      <trkpt lat="47.41287" lon="6.75187">
        <ele>554.6</ele>
        <time>2022-01-01T06:50:54Z</time>
      </trkpt>
      <trkpt lat="47.41212" lon="6.75221">
        <ele>559.4</ele>
        <time>2022-01-01T06:51:16Z</time>
      </trkpt>
      <trkpt lat="47.41003" lon="6.75453">
        <ele>548.9</ele>
        <time>2022-01-01T06:52:21Z</time>
      </trkpt>
      <trkpt lat="47.40814" lon="6.75676">
        <ele>531.5</ele>
        <time>2022-01-01T06:53:26Z</time>
      </trkpt>
      <trkpt lat="47.40715" lon="6.75762">
        <ele>530.3</ele>
        <time>2022-01-01T06:53:52Z</time>
      </trkpt>
      <trkpt lat="47.40503" lon="6.75736">
        <ele>526.1</ele>
        <time>2022-01-01T06:54:42Z</time>
      </trkpt>
      <trkpt lat="47.4034" lon="6.75702">
        <ele>514.5</ele>
        <time>2022-01-01T06:55:26Z</time>
      </trkpt>
      <trkpt lat="47.40178" lon="6.75715">
        <ele>505</ele>
        <time>2022-01-01T06:56:09Z</time>
      </trkpt>
      <trkpt lat="47.40021" lon="6.75591">
        <ele>489.2</ele>
        <time>2022-01-01T06:56:59Z</time>
      </trkpt>
      <trkpt lat="47.39983" lon="6.75569">
        <ele>485</ele>
        <time>2022-01-01T06:57:11Z</time>
      </trkpt>
      <trkpt lat="47.39954" lon="6.75621">
        <ele>480.8</ele>
        <time>2022-01-01T06:57:24Z</time>
      </trkpt>
      <trkpt lat="47.3994" lon="6.75651">
        <ele>477.9</ele>
        <time>2022-01-01T06:57:31Z</time>
      </trkpt>
      <trkpt lat="47.39899" lon="6.75582">
        <ele>474.5</ele>
        <time>2022-01-01T06:57:47Z</time>
      </trkpt>
      <trkpt lat="47.39849" lon="6.75509">
        <ele>471.6</ele>
        <time>2022-01-01T06:58:04Z</time>
      </trkpt>
      <trkpt lat="47.39809" lon="6.75475">
        <ele>468.3</ele>
        <time>2022-01-01T06:58:17Z</time>
      </trkpt>
      <trkpt lat="47.39791" lon="6.75458">
        <ele>465.9</ele>
        <time>2022-01-01T06:58:23Z</time>
      </trkpt>
      <trkpt lat="47.39844" lon="6.7538">
        <ele>461.2</ele>
        <time>2022-01-01T06:58:43Z</time>
      </trkpt>
      <trkpt lat="47.39951" lon="6.75359">
        <ele>452.8</ele>
        <time>2022-01-01T06:59:13Z</time>
      </trkpt>
      <trkpt lat="47.40033" lon="6.7538">
        <ele>445.4</ele>
        <time>2022-01-01T06:59:36Z</time>
      </trkpt>
      <trkpt lat="47.40123" lon="6.75385">
        <ele>444.3</ele>
        <time>2022-01-01T06:59:57Z</time>
      </trkpt>
      <trkpt lat="47.40163" lon="6.75372">
        <ele>441.2</ele>
        <time>2022-01-01T07:00:08Z</time>
      </trkpt>
      <trkpt lat="47.40099" lon="6.7535">
        <ele>430.9</ele>
        <time>2022-01-01T07:00:29Z</time>
      </trkpt>
      <trkpt lat="47.39995" lon="6.75316">
        <ele>427</ele>
        <time>2022-01-01T07:00:55Z</time>
      </trkpt>
      <trkpt lat="47.39957" lon="6.75286">
        <ele>427</ele>
        <time>2022-01-01T07:01:05Z</time>
      </trkpt>
      <trkpt lat="47.39913" lon="6.7523">
        <ele>420.4</ele>
        <time>2022-01-01T07:01:22Z</time>
      </trkpt>
      <trkpt lat="47.3982" lon="6.75243">
        <ele>412.6</ele>
        <time>2022-01-01T07:01:48Z</time>
      </trkpt>
      <trkpt lat="47.39698" lon="6.75294">
        <ele>405.4</ele>
        <time>2022-01-01T07:02:21Z</time>
      </trkpt>
      <trkpt lat="47.39553" lon="6.75372">
        <ele>397.3</ele>
        <time>2022-01-01T07:03:01Z</time>
      </trkpt>
      <trkpt lat="47.39431" lon="6.7538">
        <ele>389.2</ele>
        <time>2022-01-01T07:03:34Z</time>
      </trkpt>
      <trkpt lat="47.39266" lon="6.7538">
        <ele>380.9</ele>
        <time>2022-01-01T07:04:16Z</time>
      </trkpt>
      <trkpt lat="47.39126" lon="6.7541">
        <ele>370.6</ele>
        <time>2022-01-01T07:04:54Z</time>
      </trkpt>
      <trkpt lat="47.38969" lon="6.75423">
        <ele>362.7</ele>
        <time>2022-01-01T07:05:34Z</time>
      </trkpt>
      <trkpt lat="47.38891" lon="6.75801">
        <ele>358.9</ele>
        <time>2022-01-01T07:06:36Z</time>
      </trkpt>
      <trkpt lat="47.3883" lon="6.762">
        <ele>367.8</ele>
        <time>2022-01-01T07:07:46Z</time>
      </trkpt>
      <trkpt lat="47.38754" lon="6.76337">
        <ele>366.3</ele>
        <time>2022-01-01T07:08:14Z</time>
      </trkpt>
      <trkpt lat="47.38684" lon="6.76393">
        <ele>367.1</ele>
        <time>2022-01-01T07:08:32Z</time>
      </trkpt>
      <trkpt lat="47.38653" lon="6.76436">
        <ele>364.8</ele>
        <time>2022-01-01T07:08:43Z</time>
      </trkpt>
      <trkpt lat="47.38606" lon="6.76479">
        <ele>363.2</ele>
        <time>2022-01-01T07:08:56Z</time>
      </trkpt>
      <trkpt lat="47.38496" lon="6.76539">
        <ele>362.7</ele>
        <time>2022-01-01T07:09:22Z</time>
      </trkpt>
      <trkpt lat="47.38342" lon="6.76633">
        <ele>361.3</ele>
        <time>2022-01-01T07:10:00Z</time>
      </trkpt>
      <trkpt lat="47.38231" lon="6.76754">
        <ele>362</ele>
        <time>2022-01-01T07:10:31Z</time>
      </trkpt>
      <trkpt lat="47.38112" lon="6.76848">
        <ele>361.9</ele>
        <time>2022-01-01T07:11:01Z</time>
      </trkpt>
      <trkpt lat="47.38019" lon="6.76874">
        <ele>361.1</ele>
        <time>2022-01-01T07:11:23Z</time>
      </trkpt>
      <trkpt lat="47.37993" lon="6.76844">
        <ele>361.6</ele>
        <time>2022-01-01T07:11:31Z</time>
      </trkpt>
      <trkpt lat="47.37961" lon="6.76796">
        <ele>364.6</ele>
        <time>2022-01-01T07:11:44Z</time>
      </trkpt>
      <trkpt lat="47.37856" lon="6.76693">
        <ele>371.8</ele>
        <time>2022-01-01T07:12:19Z</time>
      </trkpt>
      <trkpt lat="47.37798" lon="6.76603">
        <ele>376.1</ele>
        <time>2022-01-01T07:12:42Z</time>
      </trkpt>
      <trkpt lat="47.37792" lon="6.76569">
        <ele>377.7</ele>
        <time>2022-01-01T07:12:49Z</time>
      </trkpt>
      <trkpt lat="47.37821" lon="6.76548">
        <ele>382.4</ele>
        <time>2022-01-01T07:13:01Z</time>
      </trkpt>
      <trkpt lat="47.37819" lon="6.765">
        <ele>370.6</ele>
        <time>2022-01-01T07:13:16Z</time>
      </trkpt>
      <trkpt lat="47.37821" lon="6.76492">
        <ele>371.9</ele>
        <time>2022-01-01T07:13:19Z</time>
      </trkpt>
      <trkpt lat="47.37804" lon="6.76376">
        <ele>373.1</ele>
        <time>2022-01-01T07:13:38Z</time>
      </trkpt>
      <trkpt lat="47.37723" lon="6.76264">
        <ele>360.6</ele>
        <time>2022-01-01T07:14:11Z</time>
      </trkpt>
      <trkpt lat="47.37653" lon="6.76114">
        <ele>360.6</ele>
        <time>2022-01-01T07:14:38Z</time>
      </trkpt>
      <trkpt lat="47.37525" lon="6.7599">
        <ele>356.9</ele>
        <time>2022-01-01T07:15:15Z</time>
      </trkpt>
      <trkpt lat="47.37412" lon="6.7593">
        <ele>357</ele>
        <time>2022-01-01T07:15:42Z</time>
      </trkpt>
      <trkpt lat="47.37313" lon="6.75947">
        <ele>355.9</ele>
        <time>2022-01-01T07:16:05Z</time>
      </trkpt>
      <trkpt lat="47.37243" lon="6.75947">
        <ele>355</ele>
        <time>2022-01-01T07:16:21Z</time>
      </trkpt>
      <trkpt lat="47.37095" lon="6.75857">
        <ele>353.6</ele>
        <time>2022-01-01T07:16:58Z</time>
      </trkpt>
      <trkpt lat="47.36982" lon="6.75741">
        <ele>352.8</ele>
        <time>2022-01-01T07:17:29Z</time>
      </trkpt>
      <trkpt lat="47.36883" lon="6.75608">
        <ele>357.2</ele>
        <time>2022-01-01T07:18:03Z</time>
      </trkpt>
      <trkpt lat="47.36735" lon="6.75513">
        <ele>356</ele>
        <time>2022-01-01T07:18:40Z</time>
      </trkpt>
      <trkpt lat="47.36647" lon="6.75518">
        <ele>353.6</ele>
        <time>2022-01-01T07:19:01Z</time>
      </trkpt>
      <trkpt lat="47.36537" lon="6.75475">
        <ele>354.9</ele>
        <time>2022-01-01T07:19:28Z</time>
      </trkpt>
      <trkpt lat="47.36368" lon="6.75492">
        <ele>358.8</ele>
        <time>2022-01-01T07:20:09Z</time>
      </trkpt>
      <trkpt lat="47.36197" lon="6.75492">
        <ele>358</ele>
        <time>2022-01-01T07:20:48Z</time>
      </trkpt>
      <trkpt lat="47.36121" lon="6.75561">
        <ele>356.4</ele>
        <time>2022-01-01T07:21:09Z</time>
      </trkpt>
      <trkpt lat="47.36043" lon="6.75543">
        <ele>358.4</ele>
        <time>2022-01-01T07:21:29Z</time>
      </trkpt>
      <trkpt lat="47.35906" lon="6.75685">
        <ele>355.8</ele>
        <time>2022-01-01T07:22:08Z</time>
      </trkpt>
      <trkpt lat="47.3572" lon="6.75805">
        <ele>358</ele>
        <time>2022-01-01T07:22:55Z</time>
      </trkpt>
      <trkpt lat="47.35575" lon="6.75857">
        <ele>360</ele>
        <time>2022-01-01T07:23:30Z</time>
      </trkpt>
      <trkpt lat="47.35482" lon="6.75878">
        <ele>359.4</ele>
        <time>2022-01-01T07:23:51Z</time>
      </trkpt>
      <trkpt lat="47.35287" lon="6.75857">
        <ele>361.9</ele>
        <time>2022-01-01T07:24:37Z</time>
      </trkpt>
      <trkpt lat="47.35101" lon="6.75861">
        <ele>362</ele>
        <time>2022-01-01T07:25:18Z</time>
      </trkpt>
      <trkpt lat="47.35008" lon="6.75891">
        <ele>359.9</ele>
        <time>2022-01-01T07:25:41Z</time>
      </trkpt>
      <trkpt lat="47.34952" lon="6.75839">
        <ele>362.6</ele>
        <time>2022-01-01T07:25:58Z</time>
      </trkpt>
      <trkpt lat="47.34874" lon="6.75771">
        <ele>363</ele>
        <time>2022-01-01T07:26:19Z</time>
      </trkpt>
      <trkpt lat="47.34856" lon="6.75706">
        <ele>363.8</ele>
        <time>2022-01-01T07:26:30Z</time>
      </trkpt>
      <trkpt lat="47.34886" lon="6.75599">
        <ele>364.9</ele>
        <time>2022-01-01T07:26:49Z</time>
      </trkpt>
      <trkpt lat="47.34888" lon="6.7553">
        <ele>365</ele>
        <time>2022-01-01T07:26:59Z</time>
      </trkpt>
      <trkpt lat="47.34842" lon="6.7535">
        <ele>365.6</ele>
        <time>2022-01-01T07:27:29Z</time>
      </trkpt>
      <trkpt lat="47.34793" lon="6.75136">
        <ele>365.6</ele>
        <time>2022-01-01T07:28:03Z</time>
      </trkpt>
      <trkpt lat="47.34793" lon="6.7493">
        <ele>368.8</ele>
        <time>2022-01-01T07:28:37Z</time>
      </trkpt>
      <trkpt lat="47.34781" lon="6.74788">
        <ele>371.7</ele>
        <time>2022-01-01T07:29:01Z</time>
      </trkpt>
      <trkpt lat="47.34708" lon="6.74578">
        <ele>380.9</ele>
        <time>2022-01-01T07:29:46Z</time>
      </trkpt>
      <trkpt lat="47.34682" lon="6.74509">
        <ele>381.8</ele>
        <time>2022-01-01T07:29:59Z</time>
      </trkpt>
      <trkpt lat="47.34644" lon="6.74389">
        <ele>387.7</ele>
        <time>2022-01-01T07:30:25Z</time>
      </trkpt>
      <trkpt lat="47.34656" lon="6.7432">
        <ele>397.2</ele>
        <time>2022-01-01T07:30:45Z</time>
      </trkpt>
      <trkpt lat="47.34662" lon="6.74282">
        <ele>399.1</ele>
        <time>2022-01-01T07:30:53Z</time>
      </trkpt>
      <trkpt lat="47.34609" lon="6.74256">
        <ele>399.4</ele>
        <time>2022-01-01T07:31:06Z</time>
      </trkpt>
      <trkpt lat="47.3456" lon="6.7423">
        <ele>404.7</ele>
        <time>2022-01-01T07:31:23Z</time>
      </trkpt>
      <trkpt lat="47.34435" lon="6.73994">
        <ele>435.1</ele>
        <time>2022-01-01T07:32:39Z</time>
      </trkpt>
      <trkpt lat="47.34307" lon="6.73741">
        <ele>447.6</ele>
        <time>2022-01-01T07:33:39Z</time>
      </trkpt>
      <trkpt lat="47.34257" lon="6.73561">
        <ele>465.4</ele>
        <time>2022-01-01T07:34:26Z</time>
      </trkpt>
      <trkpt lat="47.34243" lon="6.73389">
        <ele>477.8</ele>
        <time>2022-01-01T07:35:04Z</time>
      </trkpt>
      <trkpt lat="47.34231" lon="6.73269">
        <ele>468.3</ele>
        <time>2022-01-01T07:35:29Z</time>
      </trkpt>
      <trkpt lat="47.3426" lon="6.73226">
        <ele>476.5</ele>
        <time>2022-01-01T07:35:46Z</time>
      </trkpt>
      <trkpt lat="47.34333" lon="6.73269">
        <ele>487.3</ele>
        <time>2022-01-01T07:36:14Z</time>
      </trkpt>
      <trkpt lat="47.34449" lon="6.73329">
        <ele>494.9</ele>
        <time>2022-01-01T07:36:49Z</time>
      </trkpt>
      <trkpt lat="47.34513" lon="6.73226">
        <ele>496.9</ele>
        <time>2022-01-01T07:37:12Z</time>
      </trkpt>
      <trkpt lat="47.34537" lon="6.73089">
        <ele>500.2</ele>
        <time>2022-01-01T07:37:37Z</time>
      </trkpt>
      <trkpt lat="47.34569" lon="6.7302">
        <ele>502.7</ele>
        <time>2022-01-01T07:37:52Z</time>
      </trkpt>
      <trkpt lat="47.34554" lon="6.72917">
        <ele>505.9</ele>
        <time>2022-01-01T07:38:11Z</time>
      </trkpt>
      <trkpt lat="47.34662" lon="6.72861">
        <ele>509</ele>
        <time>2022-01-01T07:38:39Z</time>
      </trkpt>
      <trkpt lat="47.34731" lon="6.72788">
        <ele>504.3</ele>
        <time>2022-01-01T07:39:01Z</time>
      </trkpt>
      <trkpt lat="47.34763" lon="6.72698">
        <ele>509.8</ele>
        <time>2022-01-01T07:39:22Z</time>
      </trkpt>
      <trkpt lat="47.3474" lon="6.72514">
        <ele>516.5</ele>
        <time>2022-01-01T07:39:57Z</time>
      </trkpt>
      <trkpt lat="47.3472" lon="6.72338">
        <ele>523</ele>
        <time>2022-01-01T07:40:30Z</time>
      </trkpt>
      <trkpt lat="47.34694" lon="6.72183">
        <ele>524.6</ele>
        <time>2022-01-01T07:40:56Z</time>
      </trkpt>
      <trkpt lat="47.34685" lon="6.72084">
        <ele>532.8</ele>
        <time>2022-01-01T07:41:19Z</time>
      </trkpt>
      <trkpt lat="47.34572" lon="6.71981">
        <ele>534.1</ele>
        <time>2022-01-01T07:41:50Z</time>
      </trkpt>
      <trkpt lat="47.34502" lon="6.71878">
        <ele>536.6</ele>
        <time>2022-01-01T07:42:14Z</time>
      </trkpt>
      <trkpt lat="47.34467" lon="6.71737">
        <ele>534.2</ele>
        <time>2022-01-01T07:42:38Z</time>
      </trkpt>
      <trkpt lat="47.34371" lon="6.71488">
        <ele>534.8</ele>
        <time>2022-01-01T07:43:22Z</time>
      </trkpt>
      <trkpt lat="47.34339" lon="6.71299">
        <ele>534.4</ele>
        <time>2022-01-01T07:43:52Z</time>
      </trkpt>
      <trkpt lat="47.34345" lon="6.71119">
        <ele>532</ele>
        <time>2022-01-01T07:44:21Z</time>
      </trkpt>
      <trkpt lat="47.34316" lon="6.70926">
        <ele>529.4</ele>
        <time>2022-01-01T07:44:53Z</time>
      </trkpt>
      <trkpt lat="47.34319" lon="6.70733">
        <ele>526.8</ele>
        <time>2022-01-01T07:45:24Z</time>
      </trkpt>
      <trkpt lat="47.34339" lon="6.70621">
        <ele>522.4</ele>
        <time>2022-01-01T07:45:44Z</time>
      </trkpt>
      <trkpt lat="47.34385" lon="6.70758">
        <ele>535.9</ele>
        <time>2022-01-01T07:46:21Z</time>
      </trkpt>
      <trkpt lat="47.34446" lon="6.70917">
        <ele>553.4</ele>
        <time>2022-01-01T07:47:06Z</time>
      </trkpt>
      <trkpt lat="47.34531" lon="6.71059">
        <ele>574.6</ele>
        <time>2022-01-01T07:47:56Z</time>
      </trkpt>
      <trkpt lat="47.34595" lon="6.71183">
        <ele>589.5</ele>
        <time>2022-01-01T07:48:34Z</time>
      </trkpt>
      <trkpt lat="47.3463" lon="6.71419">
        <ele>594.2</ele>
        <time>2022-01-01T07:49:15Z</time>
      </trkpt>
      <trkpt lat="47.34682" lon="6.71565">
        <ele>602.2</ele>
        <time>2022-01-01T07:49:48Z</time>
      </trkpt>
      <trkpt lat="47.34665" lon="6.71381">
        <ele>612.8</ele>
        <time>2022-01-01T07:50:27Z</time>
      </trkpt>
      <trkpt lat="47.34665" lon="6.71252">
        <ele>624.6</ele>
        <time>2022-01-01T07:50:58Z</time>
      </trkpt>
      <trkpt lat="47.34688" lon="6.71183">
        <ele>636.9</ele>
        <time>2022-01-01T07:51:22Z</time>
      </trkpt>
      <trkpt lat="47.34682" lon="6.71063">
        <ele>640.6</ele>
        <time>2022-01-01T07:51:44Z</time>
      </trkpt>
      <trkpt lat="47.34717" lon="6.71067">
        <ele>648.1</ele>
        <time>2022-01-01T07:51:59Z</time>
      </trkpt>
      <trkpt lat="47.34769" lon="6.71166">
        <ele>656.8</ele>
        <time>2022-01-01T07:52:27Z</time>
      </trkpt>
      <trkpt lat="47.34842" lon="6.71127">
        <ele>668.7</ele>
        <time>2022-01-01T07:52:56Z</time>
      </trkpt>
      <trkpt lat="47.34996" lon="6.71402">
        <ele>699.4</ele>
        <time>2022-01-01T07:54:20Z</time>
      </trkpt>
      <trkpt lat="47.35043" lon="6.71552">
        <ele>710.1</ele>
        <time>2022-01-01T07:54:56Z</time>
      </trkpt>
      <trkpt lat="47.35066" lon="6.71672">
        <ele>716.1</ele>
        <time>2022-01-01T07:55:21Z</time>
      </trkpt>
      <trkpt lat="47.35141" lon="6.71754">
        <ele>727.3</ele>
        <time>2022-01-01T07:55:53Z</time>
      </trkpt>
      <trkpt lat="47.35243" lon="6.71754">
        <ele>741.4</ele>
        <time>2022-01-01T07:56:30Z</time>
      </trkpt>
      <trkpt lat="47.35272" lon="6.71741">
        <ele>751</ele>
        <time>2022-01-01T07:56:46Z</time>
      </trkpt>
      <trkpt lat="47.35325" lon="6.71535">
        <ele>769.3</ele>
        <time>2022-01-01T07:57:37Z</time>
      </trkpt>
      <trkpt lat="47.35371" lon="6.71381">
        <ele>787.6</ele>
        <time>2022-01-01T07:58:21Z</time>
      </trkpt>
      <trkpt lat="47.35406" lon="6.71235">
        <ele>800.3</ele>
        <time>2022-01-01T07:58:57Z</time>
      </trkpt>
      <trkpt lat="47.35441" lon="6.71183">
        <ele>812.1</ele>
        <time>2022-01-01T07:59:20Z</time>
      </trkpt>
      <trkpt lat="47.35476" lon="6.71385">
        <ele>820.5</ele>
        <time>2022-01-01T08:00:00Z</time>
      </trkpt>
      <trkpt lat="47.35514" lon="6.71582">
        <ele>824.5</ele>
        <time>2022-01-01T08:00:35Z</time>
      </trkpt>
      <trkpt lat="47.35548" lon="6.71698">
        <ele>820.9</ele>
        <time>2022-01-01T08:00:56Z</time>
      </trkpt>
      <trkpt lat="47.35627" lon="6.71921">
        <ele>810.6</ele>
        <time>2022-01-01T08:01:41Z</time>
      </trkpt>
      <trkpt lat="47.35688" lon="6.72007">
        <ele>798.2</ele>
        <time>2022-01-01T08:02:08Z</time>
      </trkpt>
      <trkpt lat="47.35755" lon="6.71943">
        <ele>797.6</ele>
        <time>2022-01-01T08:02:26Z</time>
      </trkpt>
      <trkpt lat="47.35804" lon="6.71956">
        <ele>802.4</ele>
        <time>2022-01-01T08:02:42Z</time>
      </trkpt>
      <trkpt lat="47.3586" lon="6.72166">
        <ele>792.8</ele>
        <time>2022-01-01T08:03:22Z</time>
      </trkpt>
      <trkpt lat="47.35909" lon="6.72368">
        <ele>787.1</ele>
        <time>2022-01-01T08:03:58Z</time>
      </trkpt>
      <trkpt lat="47.3595" lon="6.72471">
        <ele>788.8</ele>
        <time>2022-01-01T08:04:18Z</time>
      </trkpt>
      <trkpt lat="47.35926" lon="6.72252">
        <ele>803.9</ele>
        <time>2022-01-01T08:05:06Z</time>
      </trkpt>
      <trkpt lat="47.35874" lon="6.71973">
        <ele>817.8</ele>
        <time>2022-01-01T08:06:03Z</time>
      </trkpt>
      <trkpt lat="47.35874" lon="6.71801">
        <ele>822.1</ele>
        <time>2022-01-01T08:06:33Z</time>
      </trkpt>
      <trkpt lat="47.35857" lon="6.71642">
        <ele>819.7</ele>
        <time>2022-01-01T08:06:59Z</time>
      </trkpt>
      <trkpt lat="47.35886" lon="6.71518">
        <ele>810.7</ele>
        <time>2022-01-01T08:07:25Z</time>
      </trkpt>
      <trkpt lat="47.35886" lon="6.71325">
        <ele>798.2</ele>
        <time>2022-01-01T08:08:02Z</time>
      </trkpt>
      <trkpt lat="47.35912" lon="6.71067">
        <ele>777.5</ele>
        <time>2022-01-01T08:08:55Z</time>
      </trkpt>
      <trkpt lat="47.3595" lon="6.7084">
        <ele>768.3</ele>
        <time>2022-01-01T08:09:36Z</time>
      </trkpt>
      <trkpt lat="47.35938" lon="6.70634">
        <ele>760.7</ele>
        <time>2022-01-01T08:10:12Z</time>
      </trkpt>
      <trkpt lat="47.35906" lon="6.70372">
        <ele>751.6</ele>
        <time>2022-01-01T08:10:58Z</time>
      </trkpt>
      <trkpt lat="47.35845" lon="6.7002">
        <ele>750</ele>
        <time>2022-01-01T08:11:54Z</time>
      </trkpt>
      <trkpt lat="47.3581" lon="6.69784">
        <ele>749.2</ele>
        <time>2022-01-01T08:12:31Z</time>
      </trkpt>
      <trkpt lat="47.35781" lon="6.69514">
        <ele>745.9</ele>
        <time>2022-01-01T08:13:14Z</time>
      </trkpt>
      <trkpt lat="47.35769" lon="6.69355">
        <ele>747.7</ele>
        <time>2022-01-01T08:13:40Z</time>
      </trkpt>
      <trkpt lat="47.35764" lon="6.692">
        <ele>748.6</ele>
        <time>2022-01-01T08:14:04Z</time>
      </trkpt>
      <trkpt lat="47.35746" lon="6.69072">
        <ele>749</ele>
        <time>2022-01-01T08:14:24Z</time>
      </trkpt>
      <trkpt lat="47.35671" lon="6.68947">
        <ele>752.8</ele>
        <time>2022-01-01T08:14:53Z</time>
      </trkpt>
      <trkpt lat="47.35598" lon="6.68917">
        <ele>751.5</ele>
        <time>2022-01-01T08:15:11Z</time>
      </trkpt>
      <trkpt lat="47.35511" lon="6.68861">
        <ele>745.8</ele>
        <time>2022-01-01T08:15:36Z</time>
      </trkpt>
      <trkpt lat="47.35426" lon="6.68861">
        <ele>737.4</ele>
        <time>2022-01-01T08:16:00Z</time>
      </trkpt>
      <trkpt lat="47.35348" lon="6.68728">
        <ele>725</ele>
        <time>2022-01-01T08:16:35Z</time>
      </trkpt>
      <trkpt lat="47.35313" lon="6.68608">
        <ele>716.5</ele>
        <time>2022-01-01T08:17:00Z</time>
      </trkpt>
      <trkpt lat="47.3533" lon="6.68522">
        <ele>715.1</ele>
        <time>2022-01-01T08:17:14Z</time>
      </trkpt>
      <trkpt lat="47.35374" lon="6.68402">
        <ele>719.1</ele>
        <time>2022-01-01T08:17:39Z</time>
      </trkpt>
      <trkpt lat="47.35377" lon="6.68261">
        <ele>719.2</ele>
        <time>2022-01-01T08:18:00Z</time>
      </trkpt>
      <trkpt lat="47.35342" lon="6.68132">
        <ele>719.1</ele>
        <time>2022-01-01T08:18:21Z</time>
      </trkpt>
      <trkpt lat="47.35278" lon="6.67836">
        <ele>734.8</ele>
        <time>2022-01-01T08:19:23Z</time>
      </trkpt>
      <trkpt lat="47.35252" lon="6.67583">
        <ele>748.2</ele>
        <time>2022-01-01T08:20:15Z</time>
      </trkpt>
      <trkpt lat="47.35211" lon="6.67308">
        <ele>756.9</ele>
        <time>2022-01-01T08:21:06Z</time>
      </trkpt>
      <trkpt lat="47.35165" lon="6.67072">
        <ele>758.6</ele>
        <time>2022-01-01T08:21:45Z</time>
      </trkpt>
      <trkpt lat="47.35144" lon="6.66874">
        <ele>757.5</ele>
        <time>2022-01-01T08:22:16Z</time>
      </trkpt>
      <trkpt lat="47.35107" lon="6.66707">
        <ele>746.7</ele>
        <time>2022-01-01T08:22:50Z</time>
      </trkpt>
      <trkpt lat="47.35144" lon="6.66467">
        <ele>751.8</ele>
        <time>2022-01-01T08:23:32Z</time>
      </trkpt>
      <trkpt lat="47.35179" lon="6.66192">
        <ele>747.2</ele>
        <time>2022-01-01T08:24:17Z</time>
      </trkpt>
      <trkpt lat="47.35208" lon="6.65832">
        <ele>731.5</ele>
        <time>2022-01-01T08:25:22Z</time>
      </trkpt>
      <trkpt lat="47.35252" lon="6.65626">
        <ele>762.1</ele>
        <time>2022-01-01T08:26:25Z</time>
      </trkpt>
      <trkpt lat="47.35304" lon="6.6533">
        <ele>788.5</ele>
        <time>2022-01-01T08:27:37Z</time>
      </trkpt>
      <trkpt lat="47.35336" lon="6.65145">
        <ele>802.5</ele>
        <time>2022-01-01T08:28:20Z</time>
      </trkpt>
      <trkpt lat="47.35377" lon="6.64776">
        <ele>812</ele>
        <time>2022-01-01T08:29:26Z</time>
      </trkpt>
      <trkpt lat="47.35421" lon="6.64398">
        <ele>814.1</ele>
        <time>2022-01-01T08:30:26Z</time>
      </trkpt>
      <trkpt lat="47.35455" lon="6.64197">
        <ele>808.8</ele>
        <time>2022-01-01T08:31:01Z</time>
      </trkpt>
      <trkpt lat="47.3558" lon="6.63995">
        <ele>814.7</ele>
        <time>2022-01-01T08:31:48Z</time>
      </trkpt>
      <trkpt lat="47.35633" lon="6.63815">
        <ele>814.6</ele>
        <time>2022-01-01T08:32:18Z</time>
      </trkpt>
      <trkpt lat="47.35665" lon="6.63536">
        <ele>820.4</ele>
        <time>2022-01-01T08:33:06Z</time>
      </trkpt>
      <trkpt lat="47.35703" lon="6.63304">
        <ele>824.3</ele>
        <time>2022-01-01T08:33:46Z</time>
      </trkpt>
      <trkpt lat="47.35737" lon="6.63089">
        <ele>823.3</ele>
        <time>2022-01-01T08:34:20Z</time>
      </trkpt>
      <trkpt lat="47.35781" lon="6.62978">
        <ele>822</ele>
        <time>2022-01-01T08:34:40Z</time>
      </trkpt>
      <trkpt lat="47.35787" lon="6.62767">
        <ele>826.7</ele>
        <time>2022-01-01T08:35:16Z</time>
      </trkpt>
      <trkpt lat="47.3574" lon="6.62596">
        <ele>826.4</ele>
        <time>2022-01-01T08:35:44Z</time>
      </trkpt>
      <trkpt lat="47.3572" lon="6.62441">
        <ele>816.8</ele>
        <time>2022-01-01T08:36:14Z</time>
      </trkpt>
      <trkpt lat="47.35851" lon="6.61978">
        <ele>822.9</ele>
        <time>2022-01-01T08:37:36Z</time>
      </trkpt>
      <trkpt lat="47.35851" lon="6.61707">
        <ele>812</ele>
        <time>2022-01-01T08:38:24Z</time>
      </trkpt>
      <trkpt lat="47.35842" lon="6.61467">
        <ele>812.1</ele>
        <time>2022-01-01T08:39:00Z</time>
      </trkpt>
      <trkpt lat="47.35793" lon="6.61347">
        <ele>821.8</ele>
        <time>2022-01-01T08:39:31Z</time>
      </trkpt>
      <trkpt lat="47.35784" lon="6.6121">
        <ele>837</ele>
        <time>2022-01-01T08:40:07Z</time>
      </trkpt>
      <trkpt lat="47.35755" lon="6.61055">
        <ele>840.2</ele>
        <time>2022-01-01T08:40:34Z</time>
      </trkpt>
      <trkpt lat="47.35735" lon="6.60901">
        <ele>838</ele>
        <time>2022-01-01T08:40:59Z</time>
      </trkpt>
      <trkpt lat="47.3579" lon="6.60768">
        <ele>839.5</ele>
        <time>2022-01-01T08:41:24Z</time>
      </trkpt>
      <trkpt lat="47.35833" lon="6.60695">
        <ele>838</ele>
        <time>2022-01-01T08:41:40Z</time>
      </trkpt>
      <trkpt lat="47.35816" lon="6.60587">
        <ele>829.3</ele>
        <time>2022-01-01T08:42:02Z</time>
      </trkpt>
      <trkpt lat="47.35723" lon="6.60351">
        <ele>803.5</ele>
        <time>2022-01-01T08:43:00Z</time>
      </trkpt>
      <trkpt lat="47.35644" lon="6.60167">
        <ele>777.4</ele>
        <time>2022-01-01T08:43:50Z</time>
      </trkpt>
      <trkpt lat="47.35607" lon="6.5936">
        <ele>710.7</ele>
        <time>2022-01-01T08:46:36Z</time>
      </trkpt>
      <trkpt lat="47.35621" lon="6.59313">
        <ele>710.5</ele>
        <time>2022-01-01T08:46:44Z</time>
      </trkpt>
      <trkpt lat="47.3554" lon="6.59133">
        <ele>692.4</ele>
        <time>2022-01-01T08:47:29Z</time>
      </trkpt>
      <trkpt lat="47.3549" lon="6.58914">
        <ele>678.7</ele>
        <time>2022-01-01T08:48:13Z</time>
      </trkpt>
      <trkpt lat="47.35383" lon="6.58746">
        <ele>659.8</ele>
        <time>2022-01-01T08:49:00Z</time>
      </trkpt>
      <trkpt lat="47.35269" lon="6.58618">
        <ele>644.1</ele>
        <time>2022-01-01T08:49:42Z</time>
      </trkpt>
      <trkpt lat="47.35243" lon="6.58605">
        <ele>641.6</ele>
        <time>2022-01-01T08:49:50Z</time>
      </trkpt>
      <trkpt lat="47.35266" lon="6.58274">
        <ele>632.8</ele>
        <time>2022-01-01T08:50:46Z</time>
      </trkpt>
      <trkpt lat="47.35249" lon="6.58034">
        <ele>621.8</ele>
        <time>2022-01-01T08:51:30Z</time>
      </trkpt>
      <trkpt lat="47.35269" lon="6.57862">
        <ele>617.6</ele>
        <time>2022-01-01T08:51:59Z</time>
      </trkpt>
      <trkpt lat="47.35359" lon="6.57691">
        <ele>617</ele>
        <time>2022-01-01T08:52:32Z</time>
      </trkpt>
      <trkpt lat="47.35423" lon="6.57476">
        <ele>614.5</ele>
        <time>2022-01-01T08:53:09Z</time>
      </trkpt>
      <trkpt lat="47.35575" lon="6.57386">
        <ele>607.4</ele>
        <time>2022-01-01T08:53:50Z</time>
      </trkpt>
      <trkpt lat="47.35755" lon="6.57407">
        <ele>601.2</ele>
        <time>2022-01-01T08:54:34Z</time>
      </trkpt>
      <trkpt lat="47.3595" lon="6.57309">
        <ele>591</ele>
        <time>2022-01-01T08:55:27Z</time>
      </trkpt>
      <trkpt lat="47.36017" lon="6.57197">
        <ele>592.6</ele>
        <time>2022-01-01T08:55:51Z</time>
      </trkpt>
      <trkpt lat="47.36083" lon="6.57317">
        <ele>597.4</ele>
        <time>2022-01-01T08:56:19Z</time>
      </trkpt>
      <trkpt lat="47.36191" lon="6.57626">
        <ele>596.5</ele>
        <time>2022-01-01T08:57:12Z</time>
      </trkpt>
      <trkpt lat="47.36249" lon="6.5797">
        <ele>592.3</ele>
        <time>2022-01-01T08:58:08Z</time>
      </trkpt>
      <trkpt lat="47.36328" lon="6.5836">
        <ele>606.1</ele>
        <time>2022-01-01T08:59:23Z</time>
      </trkpt>
      <trkpt lat="47.36447" lon="6.58686">
        <ele>620.7</ele>
        <time>2022-01-01T09:00:33Z</time>
      </trkpt>
      <trkpt lat="47.36519" lon="6.58836">
        <ele>625.2</ele>
        <time>2022-01-01T09:01:05Z</time>
      </trkpt>
      <trkpt lat="47.36656" lon="6.59098">
        <ele>624.3</ele>
        <time>2022-01-01T09:01:55Z</time>
      </trkpt>
      <trkpt lat="47.36743" lon="6.5927">
        <ele>620.7</ele>
        <time>2022-01-01T09:02:30Z</time>
      </trkpt>
      <trkpt lat="47.36813" lon="6.59424">
        <ele>613.7</ele>
        <time>2022-01-01T09:03:03Z</time>
      </trkpt>
      <trkpt lat="47.36851" lon="6.59669">
        <ele>604.3</ele>
        <time>2022-01-01T09:03:47Z</time>
      </trkpt>
      <trkpt lat="47.36889" lon="6.59892">
        <ele>596.8</ele>
        <time>2022-01-01T09:04:27Z</time>
      </trkpt>
      <trkpt lat="47.36918" lon="6.60158">
        <ele>588</ele>
        <time>2022-01-01T09:05:13Z</time>
      </trkpt>
      <trkpt lat="47.3699" lon="6.60416">
        <ele>582</ele>
        <time>2022-01-01T09:05:59Z</time>
      </trkpt>
      <trkpt lat="47.37048" lon="6.60562">
        <ele>579</ele>
        <time>2022-01-01T09:06:26Z</time>
      </trkpt>
      <trkpt lat="47.37124" lon="6.60716">
        <ele>575.2</ele>
        <time>2022-01-01T09:06:57Z</time>
      </trkpt>
      <trkpt lat="47.37261" lon="6.60828">
        <ele>574.6</ele>
        <time>2022-01-01T09:07:32Z</time>
      </trkpt>
      <trkpt lat="47.37377" lon="6.60905">
        <ele>580.1</ele>
        <time>2022-01-01T09:08:06Z</time>
      </trkpt>
      <trkpt lat="47.37412" lon="6.61064">
        <ele>587.6</ele>
        <time>2022-01-01T09:08:39Z</time>
      </trkpt>
      <trkpt lat="47.37432" lon="6.61171">
        <ele>591.3</ele>
        <time>2022-01-01T09:08:59Z</time>
      </trkpt>
      <trkpt lat="47.37638" lon="6.61364">
        <ele>603.7</ele>
        <time>2022-01-01T09:10:06Z</time>
      </trkpt>
      <trkpt lat="47.37775" lon="6.6163">
        <ele>594.1</ele>
        <time>2022-01-01T09:11:03Z</time>
      </trkpt>
      <trkpt lat="47.37874" lon="6.6181">
        <ele>592.9</ele>
        <time>2022-01-01T09:11:39Z</time>
      </trkpt>
      <trkpt lat="47.37967" lon="6.61913">
        <ele>590</ele>
        <time>2022-01-01T09:12:07Z</time>
      </trkpt>
      <trkpt lat="47.38109" lon="6.62008">
        <ele>587.3</ele>
        <time>2022-01-01T09:12:43Z</time>
      </trkpt>
      <trkpt lat="47.38231" lon="6.62034">
        <ele>579.6</ele>
        <time>2022-01-01T09:13:16Z</time>
      </trkpt>
      <trkpt lat="47.38336" lon="6.62132">
        <ele>572.5</ele>
        <time>2022-01-01T09:13:48Z</time>
      </trkpt>
      <trkpt lat="47.38414" lon="6.62257">
        <ele>562.7</ele>
        <time>2022-01-01T09:14:20Z</time>
      </trkpt>
      <trkpt lat="47.38423" lon="6.62386">
        <ele>552.9</ele>
        <time>2022-01-01T09:14:46Z</time>
      </trkpt>
      <trkpt lat="47.38408" lon="6.62531">
        <ele>550.5</ele>
        <time>2022-01-01T09:15:10Z</time>
      </trkpt>
      <trkpt lat="47.38438" lon="6.62531">
        <ele>550</ele>
        <time>2022-01-01T09:15:17Z</time>
      </trkpt>
      <trkpt lat="47.38455" lon="6.62463">
        <ele>547.6</ele>
        <time>2022-01-01T09:15:30Z</time>
      </trkpt>
      <trkpt lat="47.38487" lon="6.62433">
        <ele>544.8</ele>
        <time>2022-01-01T09:15:40Z</time>
      </trkpt>
      <trkpt lat="47.38545" lon="6.62497">
        <ele>539.5</ele>
        <time>2022-01-01T09:16:00Z</time>
      </trkpt>
      <trkpt lat="47.38603" lon="6.62557">
        <ele>536.9</ele>
        <time>2022-01-01T09:16:17Z</time>
      </trkpt>
      <trkpt lat="47.38571" lon="6.62699">
        <ele>531</ele>
        <time>2022-01-01T09:16:43Z</time>
      </trkpt>
      <trkpt lat="47.3851" lon="6.6275">
        <ele>530</ele>
        <time>2022-01-01T09:16:59Z</time>
      </trkpt>
      <trkpt lat="47.3856" lon="6.6281">
        <ele>527.5</ele>
        <time>2022-01-01T09:17:15Z</time>
      </trkpt>
      <trkpt lat="47.38644" lon="6.62879">
        <ele>518.1</ele>
        <time>2022-01-01T09:17:43Z</time>
      </trkpt>
      <trkpt lat="47.38693" lon="6.62991">
        <ele>513.5</ele>
        <time>2022-01-01T09:18:06Z</time>
      </trkpt>
      <trkpt lat="47.38679" lon="6.63111">
        <ele>509.9</ele>
        <time>2022-01-01T09:18:27Z</time>
      </trkpt>
      <trkpt lat="47.38609" lon="6.63252">
        <ele>500</ele>
        <time>2022-01-01T09:19:00Z</time>
      </trkpt>
      <trkpt lat="47.38478" lon="6.633">
        <ele>491.4</ele>
        <time>2022-01-01T09:19:36Z</time>
      </trkpt>
      <trkpt lat="47.38385" lon="6.63261">
        <ele>489.1</ele>
        <time>2022-01-01T09:19:59Z</time>
      </trkpt>
      <trkpt lat="47.38475" lon="6.63467">
        <ele>471.6</ele>
        <time>2022-01-01T09:20:48Z</time>
      </trkpt>
      <trkpt lat="47.38507" lon="6.63634">
        <ele>457</ele>
        <time>2022-01-01T09:21:24Z</time>
      </trkpt>
      <trkpt lat="47.38536" lon="6.63755">
        <ele>447.6</ele>
        <time>2022-01-01T09:21:49Z</time>
      </trkpt>
      <trkpt lat="47.38568" lon="6.63819">
        <ele>444.4</ele>
        <time>2022-01-01T09:22:03Z</time>
      </trkpt>
      <trkpt lat="47.3856" lon="6.63892">
        <ele>437.2</ele>
        <time>2022-01-01T09:22:19Z</time>
      </trkpt>
      <trkpt lat="47.38583" lon="6.63969">
        <ele>431.3</ele>
        <time>2022-01-01T09:22:36Z</time>
      </trkpt>
      <trkpt lat="47.38603" lon="6.64038">
        <ele>427.3</ele>
        <time>2022-01-01T09:22:50Z</time>
      </trkpt>
      <trkpt lat="47.38594" lon="6.64115">
        <ele>425</ele>
        <time>2022-01-01T09:23:03Z</time>
      </trkpt>
      <trkpt lat="47.38583" lon="6.64218">
        <ele>426</ele>
        <time>2022-01-01T09:23:20Z</time>
      </trkpt>
      <trkpt lat="47.38586" lon="6.64368">
        <ele>439.5</ele>
        <time>2022-01-01T09:23:56Z</time>
      </trkpt>
      <trkpt lat="47.38606" lon="6.64484">
        <ele>443.8</ele>
        <time>2022-01-01T09:24:18Z</time>
      </trkpt>
      <trkpt lat="47.38629" lon="6.64613">
        <ele>442</ele>
        <time>2022-01-01T09:24:39Z</time>
      </trkpt>
      <trkpt lat="47.38641" lon="6.6469">
        <ele>441.2</ele>
        <time>2022-01-01T09:24:51Z</time>
      </trkpt>
      <trkpt lat="47.38682" lon="6.64746">
        <ele>439.2</ele>
        <time>2022-01-01T09:25:05Z</time>
      </trkpt>
      <trkpt lat="47.38711" lon="6.649">
        <ele>433.4</ele>
        <time>2022-01-01T09:25:33Z</time>
      </trkpt>
      <trkpt lat="47.38719" lon="6.64978">
        <ele>431.9</ele>
        <time>2022-01-01T09:25:46Z</time>
      </trkpt>
      <trkpt lat="47.38751" lon="6.65033">
        <ele>429.8</ele>
        <time>2022-01-01T09:25:58Z</time>
      </trkpt>
      <trkpt lat="47.38789" lon="6.65072">
        <ele>428.5</ele>
        <time>2022-01-01T09:26:09Z</time>
      </trkpt>
      <trkpt lat="47.38812" lon="6.65089">
        <ele>429</ele>
        <time>2022-01-01T09:26:15Z</time>
      </trkpt>
      <trkpt lat="47.38894" lon="6.65068">
        <ele>430.4</ele>
        <time>2022-01-01T09:26:35Z</time>
      </trkpt>
      <trkpt lat="47.38934" lon="6.65085">
        <ele>433.9</ele>
        <time>2022-01-01T09:26:48Z</time>
      </trkpt>
      <trkpt lat="47.38931" lon="6.65188">
        <ele>438.2</ele>
        <time>2022-01-01T09:27:08Z</time>
      </trkpt>
      <trkpt lat="47.38929" lon="6.65334">
        <ele>444.1</ele>
        <time>2022-01-01T09:27:36Z</time>
      </trkpt>
      <trkpt lat="47.38952" lon="6.65471">
        <ele>451.3</ele>
        <time>2022-01-01T09:28:05Z</time>
      </trkpt>
      <trkpt lat="47.38966" lon="6.6557">
        <ele>453.9</ele>
        <time>2022-01-01T09:28:23Z</time>
      </trkpt>
      <trkpt lat="47.38987" lon="6.65557">
        <ele>458.1</ele>
        <time>2022-01-01T09:28:32Z</time>
      </trkpt>
      <trkpt lat="47.38995" lon="6.6545">
        <ele>460</ele>
        <time>2022-01-01T09:28:50Z</time>
      </trkpt>
      <trkpt lat="47.39024" lon="6.65364">
        <ele>463.4</ele>
        <time>2022-01-01T09:29:08Z</time>
      </trkpt>
      <trkpt lat="47.39062" lon="6.65248">
        <ele>466.6</ele>
        <time>2022-01-01T09:29:31Z</time>
      </trkpt>
      <trkpt lat="47.39097" lon="6.65201">
        <ele>473.8</ele>
        <time>2022-01-01T09:29:49Z</time>
      </trkpt>
      <trkpt lat="47.391" lon="6.65321">
        <ele>482.6</ele>
        <time>2022-01-01T09:30:16Z</time>
      </trkpt>
      <trkpt lat="47.39071" lon="6.65437">
        <ele>478.2</ele>
        <time>2022-01-01T09:30:38Z</time>
      </trkpt>
      <trkpt lat="47.39091" lon="6.65638">
        <ele>494.8</ele>
        <time>2022-01-01T09:31:25Z</time>
      </trkpt>
      <trkpt lat="47.39106" lon="6.65746">
        <ele>494.7</ele>
        <time>2022-01-01T09:31:42Z</time>
      </trkpt>
      <trkpt lat="47.3912" lon="6.65887">
        <ele>502.7</ele>
        <time>2022-01-01T09:32:12Z</time>
      </trkpt>
      <trkpt lat="47.39097" lon="6.66033">
        <ele>512</ele>
        <time>2022-01-01T09:32:44Z</time>
      </trkpt>
      <trkpt lat="47.39056" lon="6.66158">
        <ele>521.7</ele>
        <time>2022-01-01T09:33:14Z</time>
      </trkpt>
      <trkpt lat="47.3901" lon="6.66214">
        <ele>528</ele>
        <time>2022-01-01T09:33:34Z</time>
      </trkpt>
      <trkpt lat="47.38949" lon="6.66171">
        <ele>527.7</ele>
        <time>2022-01-01T09:33:49Z</time>
      </trkpt>
      <trkpt lat="47.38844" lon="6.66085">
        <ele>530.4</ele>
        <time>2022-01-01T09:34:18Z</time>
      </trkpt>
      <trkpt lat="47.38772" lon="6.66055">
        <ele>540</ele>
        <time>2022-01-01T09:34:44Z</time>
      </trkpt>
      <trkpt lat="47.38766" lon="6.66089">
        <ele>552.1</ele>
        <time>2022-01-01T09:35:01Z</time>
      </trkpt>
      <trkpt lat="47.38818" lon="6.66136">
        <ele>554.5</ele>
        <time>2022-01-01T09:35:17Z</time>
      </trkpt>
      <trkpt lat="47.38891" lon="6.66196">
        <ele>553.7</ele>
        <time>2022-01-01T09:35:36Z</time>
      </trkpt>
      <trkpt lat="47.38937" lon="6.66278">
        <ele>553.6</ele>
        <time>2022-01-01T09:35:52Z</time>
      </trkpt>
      <trkpt lat="47.3899" lon="6.66364">
        <ele>557</ele>
        <time>2022-01-01T09:36:13Z</time>
      </trkpt>
      <trkpt lat="47.39048" lon="6.66411">
        <ele>561</ele>
        <time>2022-01-01T09:36:32Z</time>
      </trkpt>
      <trkpt lat="47.39114" lon="6.66398">
        <ele>567.9</ele>
        <time>2022-01-01T09:36:54Z</time>
      </trkpt>
      <trkpt lat="47.39207" lon="6.66407">
        <ele>570</ele>
        <time>2022-01-01T09:37:17Z</time>
      </trkpt>
      <trkpt lat="47.39303" lon="6.6645">
        <ele>567.1</ele>
        <time>2022-01-01T09:37:41Z</time>
      </trkpt>
      <trkpt lat="47.3942" lon="6.66523">
        <ele>562.9</ele>
        <time>2022-01-01T09:38:12Z</time>
      </trkpt>
      <trkpt lat="47.39495" lon="6.66596">
        <ele>560.1</ele>
        <time>2022-01-01T09:38:34Z</time>
      </trkpt>
      <trkpt lat="47.39553" lon="6.66686">
        <ele>558</ele>
        <time>2022-01-01T09:38:54Z</time>
      </trkpt>
      <trkpt lat="47.39611" lon="6.66793">
        <ele>554</ele>
        <time>2022-01-01T09:39:17Z</time>
      </trkpt>
      <trkpt lat="47.39661" lon="6.66922">
        <ele>547.1</ele>
        <time>2022-01-01T09:39:44Z</time>
      </trkpt>
      <trkpt lat="47.39652" lon="6.67188">
        <ele>529.9</ele>
        <time>2022-01-01T09:40:36Z</time>
      </trkpt>
      <trkpt lat="47.39716" lon="6.67261">
        <ele>523</ele>
        <time>2022-01-01T09:40:59Z</time>
      </trkpt>
      <trkpt lat="47.39815" lon="6.67389">
        <ele>516.4</ele>
        <time>2022-01-01T09:41:33Z</time>
      </trkpt>
      <trkpt lat="47.39861" lon="6.67445">
        <ele>515.1</ele>
        <time>2022-01-01T09:41:47Z</time>
      </trkpt>
      <trkpt lat="47.39963" lon="6.67553">
        <ele>513.6</ele>
        <time>2022-01-01T09:42:16Z</time>
      </trkpt>
      <trkpt lat="47.40059" lon="6.67625">
        <ele>511.3</ele>
        <time>2022-01-01T09:42:41Z</time>
      </trkpt>
      <trkpt lat="47.40108" lon="6.6775">
        <ele>510.1</ele>
        <time>2022-01-01T09:43:04Z</time>
      </trkpt>
      <trkpt lat="47.40125" lon="6.67926">
        <ele>507.5</ele>
        <time>2022-01-01T09:43:32Z</time>
      </trkpt>
      <trkpt lat="47.40099" lon="6.67995">
        <ele>504.4</ele>
        <time>2022-01-01T09:43:46Z</time>
      </trkpt>
      <trkpt lat="47.40021" lon="6.68029">
        <ele>498.9</ele>
        <time>2022-01-01T09:44:08Z</time>
      </trkpt>
      <trkpt lat="47.3998" lon="6.68072">
        <ele>499</ele>
        <time>2022-01-01T09:44:19Z</time>
      </trkpt>
      <trkpt lat="47.39957" lon="6.68162">
        <ele>500.1</ele>
        <time>2022-01-01T09:44:35Z</time>
      </trkpt>
      <trkpt lat="47.40001" lon="6.68265">
        <ele>500</ele>
        <time>2022-01-01T09:44:53Z</time>
      </trkpt>
      <trkpt lat="47.40053" lon="6.68355">
        <ele>497.1</ele>
        <time>2022-01-01T09:45:13Z</time>
      </trkpt>
      <trkpt lat="47.40125" lon="6.68501">
        <ele>497.5</ele>
        <time>2022-01-01T09:45:41Z</time>
      </trkpt>
      <trkpt lat="47.40192" lon="6.68625">
        <ele>498.7</ele>
        <time>2022-01-01T09:46:06Z</time>
      </trkpt>
      <trkpt lat="47.40268" lon="6.6872">
        <ele>497.5</ele>
        <time>2022-01-01T09:46:29Z</time>
      </trkpt>
      <trkpt lat="47.40404" lon="6.68771">
        <ele>490.1</ele>
        <time>2022-01-01T09:47:05Z</time>
      </trkpt>
      <trkpt lat="47.40497" lon="6.68849">
        <ele>479.9</ele>
        <time>2022-01-01T09:47:35Z</time>
      </trkpt>
      <trkpt lat="47.40576" lon="6.6896">
        <ele>471.7</ele>
        <time>2022-01-01T09:48:05Z</time>
      </trkpt>
      <trkpt lat="47.40634" lon="6.69067">
        <ele>465.6</ele>
        <time>2022-01-01T09:48:30Z</time>
      </trkpt>
      <trkpt lat="47.40683" lon="6.69175">
        <ele>457.8</ele>
        <time>2022-01-01T09:48:55Z</time>
      </trkpt>
      <trkpt lat="47.4073" lon="6.69295">
        <ele>449.3</ele>
        <time>2022-01-01T09:49:21Z</time>
      </trkpt>
      <trkpt lat="47.40843" lon="6.69535">
        <ele>436.5</ele>
        <time>2022-01-01T09:50:14Z</time>
      </trkpt>
      <trkpt lat="47.40968" lon="6.69638">
        <ele>424.6</ele>
        <time>2022-01-01T09:50:54Z</time>
      </trkpt>
      <trkpt lat="47.4109" lon="6.69703">
        <ele>412.9</ele>
        <time>2022-01-01T09:51:31Z</time>
      </trkpt>
      <trkpt lat="47.41186" lon="6.69776">
        <ele>401.8</ele>
        <time>2022-01-01T09:52:02Z</time>
      </trkpt>
      <trkpt lat="47.4129" lon="6.69904">
        <ele>387.5</ele>
        <time>2022-01-01T09:52:42Z</time>
      </trkpt>
      <trkpt lat="47.41363" lon="6.70003">
        <ele>375.6</ele>
        <time>2022-01-01T09:53:12Z</time>
      </trkpt>
      <trkpt lat="47.41412" lon="6.70012">
        <ele>370.7</ele>
        <time>2022-01-01T09:53:26Z</time>
      </trkpt>
      <trkpt lat="47.41479" lon="6.7005">
        <ele>366</ele>
        <time>2022-01-01T09:53:45Z</time>
      </trkpt>
      <trkpt lat="47.4154" lon="6.69999">
        <ele>366</ele>
        <time>2022-01-01T09:54:01Z</time>
      </trkpt>
      <trkpt lat="47.41618" lon="6.6999">
        <ele>366.7</ele>
        <time>2022-01-01T09:54:19Z</time>
      </trkpt>
      <trkpt lat="47.41711" lon="6.6999">
        <ele>368.7</ele>
        <time>2022-01-01T09:54:42Z</time>
      </trkpt>
      <trkpt lat="47.41816" lon="6.69982">
        <ele>367.2</ele>
        <time>2022-01-01T09:55:06Z</time>
      </trkpt>
      <trkpt lat="47.419" lon="6.6996">
        <ele>369</ele>
        <time>2022-01-01T09:55:27Z</time>
      </trkpt>
      <trkpt lat="47.42083" lon="6.69926">
        <ele>370.6</ele>
        <time>2022-01-01T09:56:10Z</time>
      </trkpt>
      <trkpt lat="47.42179" lon="6.69853">
        <ele>362.3</ele>
        <time>2022-01-01T09:56:39Z</time>
      </trkpt>
      <trkpt lat="47.42257" lon="6.69823">
        <ele>365.1</ele>
        <time>2022-01-01T09:57:00Z</time>
      </trkpt>
      <trkpt lat="47.42251" lon="6.6987">
        <ele>367.7</ele>
        <time>2022-01-01T09:57:10Z</time>
      </trkpt>
      <trkpt lat="47.42312" lon="6.69887">
        <ele>369.1</ele>
        <time>2022-01-01T09:57:25Z</time>
      </trkpt>
      <trkpt lat="47.42336" lon="6.6987">
        <ele>370.7</ele>
        <time>2022-01-01T09:57:32Z</time>
      </trkpt>
      <trkpt lat="47.4233" lon="6.69758">
        <ele>372.4</ele>
        <time>2022-01-01T09:57:51Z</time>
      </trkpt>
      <trkpt lat="47.42347" lon="6.69698">
        <ele>377.7</ele>
        <time>2022-01-01T09:58:06Z</time>
      </trkpt>
      <trkpt lat="47.42382" lon="6.69638">
        <ele>379.7</ele>
        <time>2022-01-01T09:58:20Z</time>
      </trkpt>
      <trkpt lat="47.42431" lon="6.69582">
        <ele>383</ele>
        <time>2022-01-01T09:58:37Z</time>
      </trkpt>
      <trkpt lat="47.42463" lon="6.69565">
        <ele>386</ele>
        <time>2022-01-01T09:58:48Z</time>
      </trkpt>
      <trkpt lat="47.42457" lon="6.69612">
        <ele>389.5</ele>
        <time>2022-01-01T09:58:59Z</time>
      </trkpt>
      <trkpt lat="47.4242" lon="6.69737">
        <ele>393</ele>
        <time>2022-01-01T09:59:23Z</time>
      </trkpt>
      <trkpt lat="47.42417" lon="6.6987">
        <ele>399</ele>
        <time>2022-01-01T09:59:49Z</time>
      </trkpt>
      <trkpt lat="47.42434" lon="6.69964">
        <ele>393.1</ele>
        <time>2022-01-01T10:00:08Z</time>
      </trkpt>
      <trkpt lat="47.42484" lon="6.7002">
        <ele>393.3</ele>
        <time>2022-01-01T10:00:22Z</time>
      </trkpt>
      <trkpt lat="47.42545" lon="6.7005">
        <ele>400.5</ele>
        <time>2022-01-01T10:00:43Z</time>
      </trkpt>
      <trkpt lat="47.42591" lon="6.70085">
        <ele>405</ele>
        <time>2022-01-01T10:00:59Z</time>
      </trkpt>
      <trkpt lat="47.42675" lon="6.70196">
        <ele>410.8</ele>
        <time>2022-01-01T10:01:30Z</time>
      </trkpt>
      <trkpt lat="47.42742" lon="6.70243">
        <ele>423.3</ele>
        <time>2022-01-01T10:01:59Z</time>
      </trkpt>
      <trkpt lat="47.42797" lon="6.70286">
        <ele>428.9</ele>
        <time>2022-01-01T10:02:18Z</time>
      </trkpt>
      <trkpt lat="47.42838" lon="6.70325">
        <ele>432.1</ele>
        <time>2022-01-01T10:02:32Z</time>
      </trkpt>
      <trkpt lat="47.42867" lon="6.70389">
        <ele>432.2</ele>
        <time>2022-01-01T10:02:44Z</time>
      </trkpt>
      <trkpt lat="47.4287" lon="6.70454">
        <ele>433.9</ele>
        <time>2022-01-01T10:02:55Z</time>
      </trkpt>
      <trkpt lat="47.42838" lon="6.70505">
        <ele>436.1</ele>
        <time>2022-01-01T10:03:08Z</time>
      </trkpt>
      <trkpt lat="47.42823" lon="6.70535">
        <ele>437.9</ele>
        <time>2022-01-01T10:03:15Z</time>
      </trkpt>
      <trkpt lat="47.42919" lon="6.70728">
        <ele>445</ele>
        <time>2022-01-01T10:03:58Z</time>
      </trkpt>
      <trkpt lat="47.42966" lon="6.70887">
        <ele>447.5</ele>
        <time>2022-01-01T10:04:27Z</time>
      </trkpt>
      <trkpt lat="47.42995" lon="6.71054">
        <ele>445.4</ele>
        <time>2022-01-01T10:04:54Z</time>
      </trkpt>
      <trkpt lat="47.43105" lon="6.71222">
        <ele>450.7</ele>
        <time>2022-01-01T10:05:34Z</time>
      </trkpt>
      <trkpt lat="47.43227" lon="6.71406">
        <ele>455.6</ele>
        <time>2022-01-01T10:06:18Z</time>
      </trkpt>
      <trkpt lat="47.43314" lon="6.71531">
        <ele>450.5</ele>
        <time>2022-01-01T10:06:48Z</time>
      </trkpt>
      <trkpt lat="47.43424" lon="6.7172">
        <ele>446.1</ele>
        <time>2022-01-01T10:07:28Z</time>
      </trkpt>
      <trkpt lat="47.43453" lon="6.71818">
        <ele>446.8</ele>
        <time>2022-01-01T10:07:45Z</time>
      </trkpt>
      <trkpt lat="47.43497" lon="6.71951">
        <ele>449.5</ele>
        <time>2022-01-01T10:08:10Z</time>
      </trkpt>
      <trkpt lat="47.43555" lon="6.72175">
        <ele>459.3</ele>
        <time>2022-01-01T10:08:56Z</time>
      </trkpt>
      <trkpt lat="47.43633" lon="6.72308">
        <ele>464.3</ele>
        <time>2022-01-01T10:09:28Z</time>
      </trkpt>
      <trkpt lat="47.43662" lon="6.72342">
        <ele>465</ele>
        <time>2022-01-01T10:09:37Z</time>
      </trkpt>
      <trkpt lat="47.43744" lon="6.72299">
        <ele>463.3</ele>
        <time>2022-01-01T10:09:57Z</time>
      </trkpt>
      <trkpt lat="47.43868" lon="6.72458">
        <ele>464.6</ele>
        <time>2022-01-01T10:10:35Z</time>
      </trkpt>
      <trkpt lat="47.4395" lon="6.72496">
        <ele>466.8</ele>
        <time>2022-01-01T10:10:56Z</time>
      </trkpt>
      <trkpt lat="47.44138" lon="6.72432">
        <ele>470.4</ele>
        <time>2022-01-01T10:11:43Z</time>
      </trkpt>
      <trkpt lat="47.44455" lon="6.72346">
        <ele>471.8</ele>
        <time>2022-01-01T10:12:56Z</time>
      </trkpt>
      <trkpt lat="47.44658" lon="6.72312">
        <ele>472.8</ele>
        <time>2022-01-01T10:13:42Z</time>
      </trkpt>
      <trkpt lat="47.44812" lon="6.72252">
        <ele>466.6</ele>
        <time>2022-01-01T10:14:21Z</time>
      </trkpt>
      <trkpt lat="47.45012" lon="6.72411">
        <ele>455.4</ele>
        <time>2022-01-01T10:15:19Z</time>
      </trkpt>
      <trkpt lat="47.45302" lon="6.72595">
        <ele>455.5</ele>
        <time>2022-01-01T10:16:29Z</time>
      </trkpt>
      <trkpt lat="47.45401" lon="6.7272">
        <ele>457.5</ele>
        <time>2022-01-01T10:17:00Z</time>
      </trkpt>
      <trkpt lat="47.4544" lon="6.72735">
        <ele>457.4</ele>
        <time>2022-01-01T10:17:09Z</time>
      </trkpt>
      <trkpt lat="47.45443" lon="6.72771">
        <ele>458</ele>
        <time>2022-01-01T10:17:15Z</time>
      </trkpt>
      <trkpt lat="47.45482" lon="6.72878">
        <ele>456.6</ele>
        <time>2022-01-01T10:17:34Z</time>
      </trkpt>
      <trkpt lat="47.45543" lon="6.73003">
        <ele>455.4</ele>
        <time>2022-01-01T10:17:58Z</time>
      </trkpt>
      <trkpt lat="47.45582" lon="6.73082">
        <ele>456</ele>
        <time>2022-01-01T10:18:13Z</time>
      </trkpt>
      <trkpt lat="47.45591" lon="6.73157">
        <ele>456.3</ele>
        <time>2022-01-01T10:18:25Z</time>
      </trkpt>
      <trkpt lat="47.45578" lon="6.73226">
        <ele>455.8</ele>
        <time>2022-01-01T10:18:36Z</time>
      </trkpt>
      <trkpt lat="47.45543" lon="6.73297">
        <ele>455</ele>
        <time>2022-01-01T10:18:50Z</time>
      </trkpt>
      <trkpt lat="47.45508" lon="6.7334">
        <ele>455</ele>
        <time>2022-01-01T10:19:00Z</time>
      </trkpt>
      <trkpt lat="47.45465" lon="6.73357">
        <ele>454.6</ele>
        <time>2022-01-01T10:19:10Z</time>
      </trkpt>
      <trkpt lat="47.4544" lon="6.73395">
        <ele>453.9</ele>
        <time>2022-01-01T10:19:18Z</time>
      </trkpt>
      <trkpt lat="47.45443" lon="6.73456">
        <ele>454</ele>
        <time>2022-01-01T10:19:27Z</time>
      </trkpt>
      <trkpt lat="47.45447" lon="6.7355">
        <ele>454</ele>
        <time>2022-01-01T10:19:41Z</time>
      </trkpt>
      <trkpt lat="47.45449" lon="6.73612">
        <ele>453</ele>
        <time>2022-01-01T10:19:51Z</time>
      </trkpt>
      <trkpt lat="47.45494" lon="6.73636">
        <ele>453.1</ele>
        <time>2022-01-01T10:20:02Z</time>
      </trkpt>
      <trkpt lat="47.45555" lon="6.73668">
        <ele>454</ele>
        <time>2022-01-01T10:20:17Z</time>
      </trkpt>
      <trkpt lat="47.45633" lon="6.7367">
        <ele>454.2</ele>
        <time>2022-01-01T10:20:35Z</time>
      </trkpt>
      <trkpt lat="47.4561" lon="6.73769">
        <ele>452.3</ele>
        <time>2022-01-01T10:20:52Z</time>
      </trkpt>
      <trkpt lat="47.45589" lon="6.7388">
        <ele>449.9</ele>
        <time>2022-01-01T10:21:11Z</time>
      </trkpt>
      <trkpt lat="47.45607" lon="6.73928">
        <ele>447.9</ele>
        <time>2022-01-01T10:21:20Z</time>
      </trkpt>
      <trkpt lat="47.45656" lon="6.73977">
        <ele>443.1</ele>
        <time>2022-01-01T10:21:36Z</time>
      </trkpt>
      <trkpt lat="47.45679" lon="6.7402">
        <ele>439.7</ele>
        <time>2022-01-01T10:21:47Z</time>
      </trkpt>
      <trkpt lat="47.45681" lon="6.74082">
        <ele>433.6</ele>
        <time>2022-01-01T10:22:00Z</time>
      </trkpt>
      <trkpt lat="47.45666" lon="6.74146">
        <ele>431.8</ele>
        <time>2022-01-01T10:22:11Z</time>
      </trkpt>
      <trkpt lat="47.4564" lon="6.74224">
        <ele>436.7</ele>
        <time>2022-01-01T10:22:29Z</time>
      </trkpt>
      <trkpt lat="47.45629" lon="6.74271">
        <ele>437.1</ele>
        <time>2022-01-01T10:22:37Z</time>
      </trkpt>
      <trkpt lat="47.4563" lon="6.74335">
        <ele>434.5</ele>
        <time>2022-01-01T10:22:48Z</time>
      </trkpt>
      <trkpt lat="47.45616" lon="6.74408">
        <ele>431.3</ele>
        <time>2022-01-01T10:23:02Z</time>
      </trkpt>
      <trkpt lat="47.45602" lon="6.74477">
        <ele>426.7</ele>
        <time>2022-01-01T10:23:16Z</time>
      </trkpt>
      <trkpt lat="47.45645" lon="6.74438">
        <ele>426.6</ele>
        <time>2022-01-01T10:23:27Z</time>
      </trkpt>
      <trkpt lat="47.45675" lon="6.74475">
        <ele>420.7</ele>
        <time>2022-01-01T10:23:40Z</time>
      </trkpt>
      <trkpt lat="47.45705" lon="6.7452">
        <ele>417.1</ele>
        <time>2022-01-01T10:23:52Z</time>
      </trkpt>
      <trkpt lat="47.45748" lon="6.74539">
        <ele>414.2</ele>
        <time>2022-01-01T10:24:04Z</time>
      </trkpt>
      <trkpt lat="47.45817" lon="6.74597">
        <ele>408.4</ele>
        <time>2022-01-01T10:24:26Z</time>
      </trkpt>
      <trkpt lat="47.45868" lon="6.74614">
        <ele>405.6</ele>
        <time>2022-01-01T10:24:39Z</time>
      </trkpt>
      <trkpt lat="47.4593" lon="6.74657">
        <ele>404.8</ele>
        <time>2022-01-01T10:24:55Z</time>
      </trkpt>
      <trkpt lat="47.45949" lon="6.74687">
        <ele>405.5</ele>
        <time>2022-01-01T10:25:02Z</time>
      </trkpt>
      <trkpt lat="47.45959" lon="6.74722">
        <ele>407</ele>
        <time>2022-01-01T10:25:09Z</time>
      </trkpt>
      <trkpt lat="47.4599" lon="6.74775">
        <ele>407.4</ele>
        <time>2022-01-01T10:25:20Z</time>
      </trkpt>
      <trkpt lat="47.46032" lon="6.74779">
        <ele>405.9</ele>
        <time>2022-01-01T10:25:30Z</time>
      </trkpt>
      <trkpt lat="47.4608" lon="6.74777">
        <ele>403.2</ele>
        <time>2022-01-01T10:25:42Z</time>
      </trkpt>
      <trkpt lat="47.4611" lon="6.74801">
        <ele>401.9</ele>
        <time>2022-01-01T10:25:51Z</time>
      </trkpt>
      <trkpt lat="47.46142" lon="6.74814">
        <ele>400.1</ele>
        <time>2022-01-01T10:26:00Z</time>
      </trkpt>
      <trkpt lat="47.46174" lon="6.74799">
        <ele>397.2</ele>
        <time>2022-01-01T10:26:09Z</time>
      </trkpt>
      <trkpt lat="47.46213" lon="6.74797">
        <ele>394.8</ele>
        <time>2022-01-01T10:26:19Z</time>
      </trkpt>
      <trkpt lat="47.46299" lon="6.74822">
        <ele>391.5</ele>
        <time>2022-01-01T10:26:41Z</time>
      </trkpt>
      <trkpt lat="47.46411" lon="6.74794">
        <ele>382.3</ele>
        <time>2022-01-01T10:27:12Z</time>
      </trkpt>
      <trkpt lat="47.46485" lon="6.74822">
        <ele>378.9</ele>
        <time>2022-01-01T10:27:31Z</time>
      </trkpt>
      <trkpt lat="47.46566" lon="6.74825">
        <ele>370.1</ele>
        <time>2022-01-01T10:27:55Z</time>
      </trkpt>
      <trkpt lat="47.46656" lon="6.74825">
        <ele>360.8</ele>
        <time>2022-01-01T10:28:21Z</time>
      </trkpt>
      <trkpt lat="47.46702" lon="6.74829">
        <ele>356.7</ele>
        <time>2022-01-01T10:28:34Z</time>
      </trkpt>
      <trkpt lat="47.46711" lon="6.74771">
        <ele>350.8</ele>
        <time>2022-01-01T10:28:47Z</time>
      </trkpt>
      <trkpt lat="47.46743" lon="6.74696">
        <ele>347.2</ele>
        <time>2022-01-01T10:29:03Z</time>
      </trkpt>
      <trkpt lat="47.46811" lon="6.74627">
        <ele>349</ele>
        <time>2022-01-01T10:29:23Z</time>
      </trkpt>
      <trkpt lat="47.46876" lon="6.74595">
        <ele>347.2</ele>
        <time>2022-01-01T10:29:39Z</time>
      </trkpt>
      <trkpt lat="47.46933" lon="6.74558">
        <ele>348.3</ele>
        <time>2022-01-01T10:29:54Z</time>
      </trkpt>
      <trkpt lat="47.46992" lon="6.74556">
        <ele>345.3</ele>
        <time>2022-01-01T10:30:09Z</time>
      </trkpt>
      <trkpt lat="47.47056" lon="6.74554">
        <ele>342</ele>
        <time>2022-01-01T10:30:25Z</time>
      </trkpt>
      <trkpt lat="47.47023" lon="6.74634">
        <ele>342.9</ele>
        <time>2022-01-01T10:30:40Z</time>
      </trkpt>
      <trkpt lat="47.46986" lon="6.74756">
        <ele>336.4</ele>
        <time>2022-01-01T10:31:04Z</time>
      </trkpt>
      <trkpt lat="47.46989" lon="6.74867">
        <ele>334.4</ele>
        <time>2022-01-01T10:31:22Z</time>
      </trkpt>
      <trkpt lat="47.46998" lon="6.75035">
        <ele>334.3</ele>
        <time>2022-01-01T10:31:47Z</time>
      </trkpt>
      <trkpt lat="47.47018" lon="6.75127">
        <ele>336.4</ele>
        <time>2022-01-01T10:32:04Z</time>
      </trkpt>
      <trkpt lat="47.47039" lon="6.75252">
        <ele>334.3</ele>
        <time>2022-01-01T10:32:25Z</time>
      </trkpt>
      <trkpt lat="47.4706" lon="6.75363">
        <ele>332</ele>
        <time>2022-01-01T10:32:44Z</time>
      </trkpt>
      <trkpt lat="47.4706" lon="6.75466">
        <ele>333.5</ele>
        <time>2022-01-01T10:33:01Z</time>
      </trkpt>
      <trkpt lat="47.47065" lon="6.75597">
        <ele>337.2</ele>
        <time>2022-01-01T10:33:24Z</time>
      </trkpt>
      <trkpt lat="47.47075" lon="6.75706">
        <ele>339</ele>
        <time>2022-01-01T10:33:42Z</time>
      </trkpt>
      <trkpt lat="47.47084" lon="6.75809">
        <ele>342.1</ele>
        <time>2022-01-01T10:34:01Z</time>
      </trkpt>
      <trkpt lat="47.47091" lon="6.75915">
        <ele>341.8</ele>
        <time>2022-01-01T10:34:17Z</time>
      </trkpt>
      <trkpt lat="47.47089" lon="6.75992">
        <ele>339.8</ele>
        <time>2022-01-01T10:34:30Z</time>
      </trkpt>
      <trkpt lat="47.47088" lon="6.76078">
        <ele>337.3</ele>
        <time>2022-01-01T10:34:45Z</time>
      </trkpt>
      <trkpt lat="47.47088" lon="6.76127">
        <ele>335.4</ele>
        <time>2022-01-01T10:34:54Z</time>
      </trkpt>
      <trkpt lat="47.47123" lon="6.76153">
        <ele>333.2</ele>
        <time>2022-01-01T10:35:04Z</time>
      </trkpt>
      <trkpt lat="47.47149" lon="6.76202">
        <ele>331.1</ele>
        <time>2022-01-01T10:35:15Z</time>
      </trkpt>
      <trkpt lat="47.47171" lon="6.76241">
        <ele>328.9</ele>
        <time>2022-01-01T10:35:24Z</time>
      </trkpt>
      <trkpt lat="47.4724" lon="6.76292">
        <ele>327.9</ele>
        <time>2022-01-01T10:35:42Z</time>
      </trkpt>
      <trkpt lat="47.47305" lon="6.76335">
        <ele>325.3</ele>
        <time>2022-01-01T10:36:00Z</time>
      </trkpt>
      <trkpt lat="47.47361" lon="6.76374">
        <ele>321.2</ele>
        <time>2022-01-01T10:36:16Z</time>
      </trkpt>
      <trkpt lat="47.47395" lon="6.76419">
        <ele>314.6</ele>
        <time>2022-01-01T10:36:31Z</time>
      </trkpt>
      <trkpt lat="47.47426" lon="6.76451">
        <ele>312.7</ele>
        <time>2022-01-01T10:36:41Z</time>
      </trkpt>
      <trkpt lat="47.47436" lon="6.76479">
        <ele>313</ele>
        <time>2022-01-01T10:36:46Z</time>
      </trkpt>
      <trkpt lat="47.47458" lon="6.76515">
        <ele>311.8</ele>
        <time>2022-01-01T10:36:54Z</time>
      </trkpt>
      <trkpt lat="47.47525" lon="6.76597">
        <ele>310.3</ele>
        <time>2022-01-01T10:37:14Z</time>
      </trkpt>
      <trkpt lat="47.47572" lon="6.76666">
        <ele>312</ele>
        <time>2022-01-01T10:37:30Z</time>
      </trkpt>
      <trkpt lat="47.47623" lon="6.76702">
        <ele>312</ele>
        <time>2022-01-01T10:37:43Z</time>
      </trkpt>
      <trkpt lat="47.47797" lon="6.76799">
        <ele>312.7</ele>
        <time>2022-01-01T10:38:25Z</time>
      </trkpt>
      <trkpt lat="47.47842" lon="6.76822">
        <ele>312</ele>
        <time>2022-01-01T10:38:36Z</time>
      </trkpt>
      <trkpt lat="47.47929" lon="6.76646">
        <ele>311.3</ele>
        <time>2022-01-01T10:39:09Z</time>
      </trkpt>
      <trkpt lat="47.48009" lon="6.7661">
        <ele>313.1</ele>
        <time>2022-01-01T10:39:29Z</time>
      </trkpt>
      <trkpt lat="47.48094" lon="6.76522">
        <ele>310.1</ele>
        <time>2022-01-01T10:39:54Z</time>
      </trkpt>
      <trkpt lat="47.48123" lon="6.7656">
        <ele>312.4</ele>
        <time>2022-01-01T10:40:05Z</time>
      </trkpt>
      <trkpt lat="47.4809" lon="6.7664">
        <ele>309</ele>
        <time>2022-01-01T10:40:21Z</time>
      </trkpt>
      <trkpt lat="47.48126" lon="6.76726">
        <ele>310</ele>
        <time>2022-01-01T10:40:37Z</time>
      </trkpt>
      <trkpt lat="47.48316" lon="6.76865">
        <ele>312.2</ele>
        <time>2022-01-01T10:41:26Z</time>
      </trkpt>
      <trkpt lat="47.48386" lon="6.76938">
        <ele>312</ele>
        <time>2022-01-01T10:41:45Z</time>
      </trkpt>
      <trkpt lat="47.4859" lon="6.77033">
        <ele>312.7</ele>
        <time>2022-01-01T10:42:33Z</time>
      </trkpt>
      <trkpt lat="47.48801" lon="6.77236">
        <ele>311.4</ele>
        <time>2022-01-01T10:43:30Z</time>
      </trkpt>
      <trkpt lat="47.48931" lon="6.77301">
        <ele>311.9</ele>
        <time>2022-01-01T10:44:01Z</time>
      </trkpt>
      <trkpt lat="47.49353" lon="6.77342">
        <ele>312</ele>
        <time>2022-01-01T10:45:35Z</time>
      </trkpt>
      <trkpt lat="47.49624" lon="6.77337">
        <ele>312.9</ele>
        <time>2022-01-01T10:46:36Z</time>
      </trkpt>
      <trkpt lat="47.49846" lon="6.77307">
        <ele>313.8</ele>
        <time>2022-01-01T10:47:26Z</time>
      </trkpt>
      <trkpt lat="47.50062" lon="6.77202">
        <ele>315.2</ele>
        <time>2022-01-01T10:48:18Z</time>
      </trkpt>
      <trkpt lat="47.50152" lon="6.77196">
        <ele>314</ele>
        <time>2022-01-01T10:48:39Z</time>
      </trkpt>
      <trkpt lat="47.50421" lon="6.77406">
        <ele>314</ele>
        <time>2022-01-01T10:49:47Z</time>
      </trkpt>
      <trkpt lat="47.50584" lon="6.7756">
        <ele>313.7</ele>
        <time>2022-01-01T10:50:30Z</time>
      </trkpt>
      <trkpt lat="47.50729" lon="6.7752">
        <ele>314</ele>
        <time>2022-01-01T10:51:03Z</time>
      </trkpt>
      <trkpt lat="47.50836" lon="6.77614">
        <ele>313</ele>
        <time>2022-01-01T10:51:31Z</time>
      </trkpt>
      <trkpt lat="47.509" lon="6.77717">
        <ele>313.8</ele>
        <time>2022-01-01T10:51:53Z</time>
      </trkpt>
      <trkpt lat="47.50988" lon="6.777">
        <ele>315.1</ele>
        <time>2022-01-01T10:52:14Z</time>
      </trkpt>
      <trkpt lat="47.51098" lon="6.77811">
        <ele>318.9</ele>
        <time>2022-01-01T10:52:47Z</time>
      </trkpt>
      <trkpt lat="47.51329" lon="6.77801">
        <ele>339.9</ele>
        <time>2022-01-01T10:53:59Z</time>
      </trkpt>
      <trkpt lat="47.51481" lon="6.77747">
        <ele>357.2</ele>
        <time>2022-01-01T10:54:51Z</time>
      </trkpt>
      <trkpt lat="47.5153" lon="6.77732">
        <ele>363.5</ele>
        <time>2022-01-01T10:55:08Z</time>
      </trkpt>
      <trkpt lat="47.51687" lon="6.7776">
        <ele>379.8</ele>
        <time>2022-01-01T10:55:59Z</time>
      </trkpt>
    </trkseg>
  </trk>
</gpx>